Latest Weather Observations for Dartmoor

IDV60801

Issued at 10:02 pm EDT Sunday 1 March 2015 (issued every 30 minutes, with the page automatically refreshed every 10 minutes)

About weather observations | Map of weather stations | Latest weather observations for VIC | Other Formats
Station Details ID: 090194 Name: DARTMOOR Lat: -37.92 Lon: 141.26 Height: 51.0 m
Data from the previous 72 hours. | See also: Recent months at Dartmoor
Date/Time
EDT
Temp
°C
App
Temp
°C
Dew
Point
Rel
Hum
%
Delta-T
°C
Wind Press
QNH
hPa
Press
MSL
hPa
Rain
since 9 am
mm
Dir
 
Spd
km/h
Gust
km/h
Spd
kts
Gust
kts
01/10:00pm 12.4 10.6 11.0 91 0.7 SSE 11 15 6 8 1019.6 1019.5 0.0
01/09:30pm 12.3 10.6 9.9 85 1.2 SE 9 13 5 7 1019.2 1019.1 0.0
01/09:00pm 13.5 11.0 9.7 78 1.9 SE 13 17 7 9 1018.4 1018.3 0.0
01/08:30pm 14.8 11.5 9.6 71 2.7 SE 17 24 9 13 1018.5 1018.4 0.0
01/08:00pm 16.3 12.1 9.7 65 3.4 ESE 22 30 12 16 1018.1 1018.0 0.0
01/07:30pm 17.2 14.4 10.1 63 3.8 S 15 24 8 13 1018.2 1018.1 0.0
01/07:00pm 18.0 14.5 10.1 60 4.2 S 19 24 10 13 1017.7 1017.6 0.0
01/06:30pm 18.8 15.6 10.1 57 4.7 S 17 24 9 13 1017.5 1017.4 0.0
01/06:00pm 18.4 14.7 10.0 58 4.5 SSW 20 26 11 14 1017.4 1017.3 0.0
01/05:30pm 19.3 16.2 10.3 56 4.8 S 17 24 9 13 1017.3 1017.2 0.0
01/05:00pm 18.9 14.9 10.5 58 4.5 SSW 22 32 12 17 1017.2 1017.1 0.0
01/04:30pm 19.4 15.5 10.7 57 4.7 S 22 30 12 16 1017.4 1017.3 0.0
01/04:00pm 19.7 15.9 11.2 58 4.7 SSW 22 32 12 17 1017.4 1017.3 0.0
01/03:30pm 19.4 15.4 11.9 62 4.2 SSW 24 35 13 19 1017.3 1017.2 0.0
01/03:00pm 19.7 16.2 12.2 62 4.2 SSW 22 33 12 18 1017.4 1017.3 0.0
01/02:30pm 19.7 16.9 11.5 59 4.5 SSW 17 30 9 16 1017.3 1017.2 0.0
01/02:00pm 19.2 15.7 12.2 64 3.9 S 22 33 12 18 1017.2 1017.1 0.0
01/01:30pm 19.6 17.0 13.3 67 3.6 S 19 32 10 17 1017.2 1017.1 0.0
01/01:00pm 18.3 14.9 13.8 75 2.6 S 24 37 13 20 1017.0 1016.9 0.0
01/12:30pm 19.4 16.6 14.4 73 2.9 SSW 22 32 12 17 1016.8 1016.7 0.0
01/12:00pm 19.1 17.0 15.2 78 2.3 SSW 20 30 11 16 1016.7 1016.6 0.0
01/11:30am 18.3 17.3 16.6 90 1.0 S 17 24 9 13 1016.6 1016.5 0.0
01/11:00am 17.1 15.0 15.3 89 1.0 SSW 20 32 11 17 1015.9 1015.8 0.0
01/10:30am 17.8 16.6 17.6 99 0.1 S 20 28 11 15 1015.5 1015.4 0.0
01/10:00am 17.2 16.8 17.2 100 0.0 S 15 24 8 13 1015.1 1015.0 0.0
01/09:30am 15.0 14.9 15.0 100 0.0 SSW 9 15 5 8 1014.7 1014.6 0.0
01/09:00am 14.1 14.1 14.1 100 0.0 SSW 7 9 4 5 1014.0 1013.9 4.2
01/08:30am 12.9 13.8 12.9 100 0.0 CALM 0 0 0 0 1013.5 1013.4 4.2
01/08:00am 11.9 12.5 11.9 100 0.0 CALM 0 0 0 0 1012.9 1012.8 4.2
01/07:30am 11.6 12.1 11.6 100 0.0 CALM 0 0 0 0 1012.3 1012.2 4.2
01/07:00am 11.3 11.7 11.3 100 0.0 CALM 0 0 0 0 1011.7 1011.5 4.2
01/06:30am 11.6 12.1 11.6 100 0.0 CALM 0 0 0 0 1011.0 1010.8 4.2
01/06:00am 11.6 12.1 11.6 100 0.0 CALM 0 0 0 0 1010.6 1010.4 4.2
01/05:30am 12.3 13.0 12.3 100 0.0 CALM 0 0 0 0 1010.3 1010.1 4.0
01/05:00am 12.4 11.8 12.4 100 0.0 WNW 7 9 4 5 1010.0 1009.8 4.0
01/04:30am 12.9 12.7 12.9 100 0.0 WNW 6 9 3 5 1009.7 1009.5 4.0
01/04:00am 12.7 12.2 12.7 100 0.0 WNW 7 9 4 5 1009.6 1009.4 4.0
01/03:30am 12.8 12.5 12.8 100 0.0 NW 6 7 3 4 1009.3 1009.1 4.0
01/03:00am 13.0 12.8 13.0 100 0.0 NW 6 6 3 3 1009.4 1009.2 4.0
01/02:30am 13.4 13.3 13.4 100 0.0 NW 6 9 3 5 1009.3 1009.1 4.0
01/02:00am 13.1 12.7 13.1 100 0.0 WNW 7 11 4 6 1009.6 1009.4 3.8
01/01:30am 12.5 13.3 12.5 100 0.0 CALM 0 6 0 3 1009.2 1009.0 3.6
01/01:00am 12.6 12.3 12.6 100 0.0 WNW 6 7 3 4 1009.2 1009.0 3.6
01/12:30am 13.4 13.1 13.4 100 0.0 WNW 7 9 4 5 1008.9 1008.7 3.6
01/12:00am 13.9 14.4 13.9 100 0.0 W 4 7 2 4 1009.0 1008.8 3.6
 
Date/Time
EDT
Temp
°C
App
Temp
°C
Dew
Point
Rel
Hum
%
Delta-T
°C
Wind Press
QNH
hPa
Press
MSL
hPa
Rain
since 9 am
mm
Dir
 
Spd
km/h
Gust
km/h
Spd
kts
Gust
kts
28/11:30pm 14.5 15.2 14.5 100 0.0 WSW 4 6 2 3 1009.0 1008.8 3.6
28/11:00pm 15.0 15.5 15.0 100 0.0 WSW 6 7 3 4 1009.0 1008.8 3.6
28/10:30pm 15.3 15.9 15.3 100 0.0 WSW 6 9 3 5 1008.8 1008.6 3.6
28/10:00pm 15.6 16.1 15.6 100 0.0 WSW 7 11 4 6 1008.5 1008.3 3.6
28/09:30pm 15.5 16.6 15.5 100 0.0 WSW 4 6 2 3 1007.8 1007.7 3.6
28/09:00pm 15.8 16.4 15.8 100 0.0 WSW 7 15 4 8 1007.4 1007.3 3.6
28/08:30pm 16.2 16.6 16.2 100 0.0 SW 9 17 5 9 1006.8 1006.7 3.6
28/08:00pm 16.9 15.6 16.9 100 0.0 SW 19 28 10 15 1006.3 1006.2 3.6
28/07:30pm 17.8 18.8 17.8 100 0.0 SW 9 17 5 9 1005.8 1005.7 3.6
28/07:00pm 17.9 17.8 17.9 100 0.0 SW 15 22 8 12 1005.3 1005.2 3.6
28/06:30pm 18.1 18.5 18.1 100 0.0 SW 13 20 7 11 1004.9 1004.8 3.6
28/06:00pm 18.4 19.7 18.4 100 0.0 WSW 9 13 5 7 1004.6 1004.5 3.6
28/05:30pm 19.2 19.3 19.2 100 0.0 WSW 17 26 9 14 1005.7 1005.6 1.6
28/05:16pm 20.6 20.3 19.6 94 0.6 SW 20 26 11 14 1003.9 1003.8 0.0
28/05:00pm 21.6 21.1 19.2 86 1.5 SSW 20 30 11 16 1001.9 1001.8 0.0
28/04:30pm 23.4 21.6 17.8 71 3.5 SSW 24 37 13 20 1002.5 1002.4 0.0
28/04:00pm 23.3 22.1 18.4 74 3.1 SW 22 32 12 17 1002.7 1002.6 0.0
28/03:30pm 27.3 24.7 16.9 53 6.5 SW 26 39 14 21 1002.4 1002.3 0.0
28/03:00pm 29.0 27.7 17.2 49 7.5 SW 20 32 11 17 1002.2 1002.1 0.0
28/02:30pm 27.2 24.7 17.1 54 6.3 SSW 26 37 14 20 1002.5 1002.4 0.0
28/02:12pm 25.9 23.0 16.2 55 6.0 SW 26 39 14 21 1002.5 1002.4 0.0
28/02:00pm 30.9 28.0 14.1 36 10.2 W 22 35 12 19 1002.1 1002.0 0.0
28/01:30pm 31.1 28.4 14.7 37 10.0 NW 22 33 12 18 1002.3 1002.2 0.0
28/01:00pm 29.4 25.7 14.0 39 9.3 NW 26 39 14 21 1002.7 1002.6 0.0
28/12:30pm 28.9 27.4 15.4 44 8.3 NNW 17 30 9 16 1003.1 1003.0 0.0
28/12:00pm 26.5 26.6 16.4 53 6.3 N 11 20 6 11 1003.4 1003.3 0.0
28/11:30am 24.6 25.8 18.3 68 4.0 N 9 19 5 10 1003.7 1003.6 0.0
28/11:00am 23.1 24.9 18.8 77 2.7 N 7 13 4 7 1004.1 1004.0 0.0
28/10:30am 21.8 24.4 19.2 85 1.7 N 4 7 2 4 1004.4 1004.3 0.0
28/10:00am 21.0 23.2 19.3 90 1.1 NNE 6 13 3 7 1004.3 1004.2 0.0
28/09:30am 20.4 22.5 19.4 94 0.6 N 7 13 4 7 1004.5 1004.4 0.0
28/09:00am 20.1 21.1 19.4 96 0.4 NNE 13 20 7 11 1004.5 1004.4 0.2
28/08:30am 19.5 20.5 19.5 100 0.0 N 13 17 7 9 1004.5 1004.4 0.2
28/08:00am 19.3 19.8 19.3 100 0.0 NNE 15 20 8 11 1004.1 1004.0 0.2
28/07:30am 19.4 19.2 19.4 100 0.0 N 19 32 10 17 1004.2 1004.1 0.2
28/07:00am 18.9 17.9 18.9 100 0.0 N 22 33 12 18 1004.3 1004.2 0.2
28/06:30am 19.2 19.0 17.5 90 1.0 N 15 20 8 11 1004.2 1004.1 0.2
28/06:00am 17.4 19.6 17.4 100 0.0 N 2 13 1 7 1003.9 1003.8 0.2
28/05:30am 17.9 19.8 17.7 99 0.1 NNE 4 7 2 4 1004.0 1003.9 0.2
28/05:00am 17.6 19.9 17.6 100 0.0 N 2 6 1 3 1004.3 1004.2 0.2
28/04:30am 16.6 18.8 16.6 100 0.0 CALM 0 0 0 0 1004.5 1004.4 0.2
28/04:00am 16.3 18.0 16.3 100 0.0 ENE 2 9 1 5 1004.7 1004.6 0.2
28/03:30am 16.3 18.4 16.3 100 0.0 CALM 0 0 0 0 1005.6 1005.5 0.2
28/03:00am 16.2 18.3 16.2 100 0.0 CALM 0 0 0 0 1005.9 1005.8 0.2
28/02:30am 16.1 17.4 16.1 100 0.0 NE 4 6 2 3 1006.3 1006.2 0.2
28/02:00am 15.8 16.6 15.8 100 0.0 E 6 7 3 4 1006.7 1006.6 0.2
28/01:30am 15.5 15.6 15.5 100 0.0 E 9 11 5 6 1007.1 1007.0 0.2
28/01:00am 15.7 16.8 15.7 100 0.0 E 4 6 2 3 1008.3 1008.1 0.2
28/12:30am 15.7 16.8 15.7 100 0.0 ENE 4 6 2 3 1009.0 1008.8 0.2
28/12:00am 15.8 17.0 15.8 100 0.0 ENE 4 6 2 3 1009.6 1009.4 0.2
 
Date/Time
EDT
Temp
°C
App
Temp
°C
Dew
Point
Rel
Hum
%
Delta-T
°C
Wind Press
QNH
hPa
Press
MSL
hPa
Rain
since 9 am
mm
Dir
 
Spd
km/h
Gust
km/h
Spd
kts
Gust
kts
27/11:30pm 15.9 16.7 15.9 100 0.0 ENE 6 7 3 4 1010.0 1009.8 0.2
27/11:00pm 16.0 17.2 16.0 100 0.0 NE 4 6 2 3 1010.5 1010.3 0.2
27/10:30pm 16.1 16.8 16.1 100 0.0 ENE 7 11 4 6 1010.5 1010.3 0.2
27/10:00pm 16.4 16.8 16.4 100 0.0 E 9 17 5 9 1010.6 1010.4 0.0
27/09:30pm 16.9 16.5 16.1 95 0.5 ESE 13 19 7 10 1010.5 1010.3 0.0
27/09:00pm 17.1 16.0 15.3 89 1.1 ESE 15 20 8 11 1010.5 1010.3 0.0
27/08:30pm 17.6 16.3 14.7 83 1.7 ESE 15 20 8 11 1010.3 1010.1 0.0
27/08:00pm 18.5 16.7 14.4 77 2.4 SE 17 22 9 12 1010.1 1009.9 0.0
27/07:30pm 19.1 18.6 14.8 76 2.5 SE 11 17 6 9 1010.1 1009.9 0.0
27/07:00pm 18.9 17.8 14.2 74 2.7 S 13 19 7 10 1010.0 1009.8 0.0
27/06:30pm 18.9 16.9 14.0 73 2.8 SSW 17 22 9 12 1009.8 1009.6 0.0
27/06:00pm 19.2 16.6 13.8 71 3.1 SSW 20 28 11 15 1009.6 1009.4 0.0
27/05:30pm 20.2 17.7 13.6 66 3.8 SSW 19 28 10 15 1009.4 1009.2 0.0
27/05:00pm 21.6 18.8 14.3 63 4.3 SSW 22 30 12 16 1009.1 1008.9 0.0
27/04:30pm 23.3 20.9 14.3 57 5.3 SSW 20 30 11 16 1008.8 1008.6 0.0
27/04:00pm 24.9 23.8 14.4 52 6.3 SSW 13 22 7 12 1009.0 1008.8 0.0
27/03:30pm 25.6 24.8 14.1 49 6.8 S 11 17 6 9 1009.2 1009.0 0.0
27/03:00pm 24.9 24.1 14.1 51 6.4 SSW 11 17 6 9 1009.4 1009.2 0.0
27/02:30pm 24.8 23.9 12.7 47 7.0 SE 9 20 5 11 1010.2 1010.0 0.0
27/02:00pm 23.2 22.8 12.5 51 6.1 W 6 15 3 8 1010.7 1010.5 0.0
27/01:30pm 22.3 21.6 13.1 56 5.3 SW 9 19 5 10 1011.2 1011.0 0.0
27/01:00pm 23.1 23.7 15.2 61 4.7 SE 6 9 3 5 1011.2 1011.0 0.0
27/12:30pm 21.2 22.9 15.3 69 3.5 CALM 0 6 0 3 1011.4 1011.2 0.0
27/12:00pm 19.9 20.9 15.3 75 2.7 ESE 4 9 2 5 1011.8 1011.6 0.0
27/11:30am 20.0 21.5 16.6 81 2.1 SSW 4 13 2 7 1012.0 1011.8 0.0
27/11:00am 18.1 20.9 17.9 99 0.1 CALM 0 0 0 0 1012.3 1012.2 0.0
27/10:30am 17.1 19.5 17.1 100 0.0 CALM 0 0 0 0 1012.6 1012.5 0.0
27/10:00am 16.6 17.5 16.6 100 0.0 E 7 13 4 7 1012.0 1011.8 0.0
27/09:30am 15.6 16.7 15.6 100 0.0 ENE 4 9 2 5 1012.0 1011.8 0.0
27/09:00am 14.8 16.0 14.8 100 0.0 ENE 2 6 1 3 1011.8 1011.6 0.0
27/08:30am 14.6 14.9 14.6 100 0.0 NE 6 9 3 5 1011.8 1011.6 0.0
27/08:00am 14.5 15.6 14.5 100 0.0 ESE 2 6 1 3 1011.4 1011.2 0.0
27/07:30am 14.4 15.4 14.4 100 0.0 E 2 6 1 3 1011.2 1011.0 0.0
27/07:00am 14.3 14.5 14.3 100 0.0 NE 6 7 3 4 1010.9 1010.7 0.0
27/06:30am 13.7 14.9 13.7 100 0.0 CALM 0 0 0 0 1010.9 1010.7 0.0
27/06:00am 14.2 15.5 14.2 100 0.0 CALM 0 0 0 0 1010.6 1010.4 0.0
27/05:30am 14.7 14.9 14.7 100 0.0 SE 7 11 4 6 1010.6 1010.4 0.0
27/05:00am 14.7 15.8 14.7 100 0.0 E 2 7 1 4 1010.6 1010.4 0.0
27/04:30am 14.1 15.4 14.1 100 0.0 CALM 0 0 0 0 1011.0 1010.8 0.0
27/04:00am 14.3 15.7 14.3 100 0.0 CALM 0 0 0 0 1011.2 1011.0 0.0
27/03:30am 14.6 16.1 14.6 100 0.0 CALM 0 0 0 0 1011.1 1010.9 0.0
27/03:00am 14.6 15.3 14.6 100 0.0 ESE 4 6 2 3 1011.0 1010.8 0.0
27/02:30am 13.9 14.0 13.9 100 0.0 E 6 6 3 3 1011.2 1011.0 0.0
27/02:00am 13.6 14.0 13.6 100 0.0 S 4 6 2 3 1012.0 1011.8 0.0
27/01:30am 13.6 14.7 13.6 100 0.0 CALM 0 0 0 0 1012.1 1011.9 0.0
27/01:00am 15.0 16.6 15.0 100 0.0 CALM 0 0 0 0 1012.1 1011.9 0.0
27/12:30am 15.9 16.7 15.9 100 0.0 WSW 6 7 3 4 1012.6 1012.5 0.0
27/12:00am 15.9 17.1 15.9 100 0.0 WSW 4 6 2 3 1012.3 1012.2 0.0
 
Date/Time
EDT
Temp
°C
App
Temp
°C
Dew
Point
Rel
Hum
%
Delta-T
°C
Wind Press
QNH
hPa
Press
MSL
hPa
Rain
since 9 am
mm
Dir
 
Spd
km/h
Gust
km/h
Spd
kts
Gust
kts
26/11:30pm 15.8 17.7 15.8 100 0.0 CALM 0 0 0 0 1012.4 1012.3 0.0
26/11:00pm 15.6 17.4 15.6 100 0.0 CALM 0 0 0 0 1012.5 1012.4 0.0
26/10:30pm 16.9 18.5 16.9 100 0.0 WSW 4 6 2 3 1012.5 1012.4 0.0

Other Formats:

Comma delimited format used in spreadsheet applications
http://www.bom.gov.au/fwo/IDV60801/IDV60801.95822.axf

JavaScript Object Notation format (JSON) in row-major order
http://www.bom.gov.au/fwo/IDV60801/IDV60801.95822.json